CDT,Max TemperatureF,Mean TemperatureF,Min TemperatureF,Max Dew PointF,MeanDew PointF,Min DewpointF,Max Humidity, Mean Humidity, Min Humidity, Max Sea Level PressureIn, Mean Sea Level PressureIn, Min Sea Level PressureIn, Max VisibilityMiles, Mean VisibilityMiles, Min VisibilityMiles, Max Wind SpeedMPH, Mean Wind SpeedMPH, Max Gust SpeedMPH,PrecipitationIn, CloudCover, Events, WindDirDegrees
2013-5-1,66,49,32,55,36,29,96,73,50,30.51,30.16,29.60,10,5,2,41,28,54,T,8,Rain-Snow,24
2013-5-2,51,41,31,31,28,19,100,65,29,30.68,30.56,30.45,10,6,0,30,20,40,0.03,7,Fog-Snow,358
2013-5-3,61,44,26,25,22,17,81,50,19,30.47,30.23,30.06,10,10,10,25,11,30,0.00,0,,339
2013-5-4,62,45,27,25,18,6,78,45,12,30.18,30.10,30.05,10,10,10,30,17,38,0.00,0,,5
2013-5-5,66,47,28,30,21,13,78,46,13,30.23,30.17,30.10,10,10,10,18,10,24,0.00,0,,14
2013-5-6,73,56,38,44,36,29,70,48,25,30.13,30.05,29.96,10,10,10,20,9,28,T,3,Rain,140
2013-5-7,82,67,52,50,45,38,89,55,21,30.02,29.86,29.70,10,10,9,29,16,37,0.02,3,Rain,171
2013-5-8,81,65,48,49,47,43,93,61,28,29.88,29.81,29.71,10,8,1,53,12,66,0.48,3,Rain-Hail-Thunderstorm,46
2013-5-9,69,57,45,54,48,43,100,71,42,30.11,30.00,29.90,10,9,4,22,12,28,0.01,3,Rain,351
2013-5-10,70,58,46,49,46,43,93,65,37,30.19,30.12,30.07,10,8,4,22,9,26,T,3,,359
2013-5-11,69,58,47,45,39,34,86,58,30,30.31,30.23,30.14,10,10,10,30,13,36,0.00,0,,31
2013-5-12,85,64,42,44,38,32,71,45,18,30.25,30.09,29.98,10,10,10,24,9,32,0.00,0,,170
2013-5-13,94,72,50,44,38,29,71,41,10,30.01,29.96,29.87,10,10,10,18,8,23,0.00,0,,216
2013-5-14,96,77,58,40,33,28,39,25,10,29.86,29.79,29.70,10,10,10,30,15,40,0.00,0,,199
2013-5-15,90,72,54,55,45,38,78,47,16,29.76,29.72,29.68,10,10,10,25,12,35,0.00,0,,157
2013-5-16,86,71,56,59,55,46,100,64,27,29.91,29.82,29.68,10,6,0,21,11,26,0.00,3,Fog,161
2013-5-17,85,71,56,63,58,54,100,72,43,29.91,29.82,29.72,10,6,0,29,15,38,T,3,Fog-Rain,141
2013-5-18,99,84,68,66,54,20,93,50,6,29.84,29.67,29.42,10,6,2,39,16,49,0.00,4,,173
2013-5-19,82,68,54,52,48,37,77,49,21,29.76,29.64,29.51,10,9,2,36,13,43,0.14,3,Rain-Thunderstorm,324
2013-5-20,78,64,49,50,44,39,89,58,27,29.91,29.77,29.70,10,10,10,25,11,32,0.00,1,,326
2013-5-21,76,61,45,41,36,26,83,50,16,29.92,29.84,29.75,10,10,10,32,15,40,0.00,0,,333
2013-5-22,81,62,42,44,41,38,89,56,23,29.94,29.88,29.81,10,10,10,15,7,20,0.00,0,,24
2013-5-23,67,59,50,54,48,44,86,69,52,30.11,30.05,29.93,10,10,10,28,17,36,0.00,4,,86
2013-5-24,88,72,56,64,54,50,93,63,32,30.16,30.04,29.88,10,8,4,31,21,39,0.00,5,,160
2013-5-25,92,79,65,60,55,48,73,50,26,29.94,29.85,29.74,10,10,9,36,22,45,T,0,Rain,180
2013-5-26,98,81,64,61,53,37,84,49,14,29.92,29.72,29.61,10,10,10,39,19,47,0.00,0,Thunderstorm,179
2013-5-27,98,82,66,60,50,32,78,45,11,29.61,29.56,29.48,10,10,8,29,15,37,0.00,0,,238
2013-5-28,92,75,58,62,55,40,93,56,18,29.73,29.59,29.47,10,9,4,41,16,53,T,3,Rain-Thunderstorm,84
2013-5-29,88,74,60,63,59,52,81,59,37,29.59,29.47,29.25,10,9,6,39,21,51,T,4,Rain-Thunderstorm,168
2013-5-30,89,70,51,56,46,14,100,53,6,29.72,29.58,29.48,10,8,4,28,11,33,0.01,2,,321
2013-5-31,85,68,51,53,39,25,93,53,13,29.76,29.71,29.65,10,10,7,28,10,33,0.00,1,,12